»·PEaware :: FDX5954 KRIV-KGCN

FDX5954 :: KRIV-KGCN

FLIGHT INFORMATION

Flight Status: Arrived
Operator:
Federal Express
More flights by this operator :: More flights under this callsign
Pilot: Joshua M. (19482)
Aircraft: BOEING 737-800
(B738)
More flights by this aircraft type
Origin: KRIV March ARB
United States
Destination: KGCN Grand Canyon Natl Park
United States
More flights between these airports :: More routes between these airports
Route: +SKYES3 TRM V514 GFS V210 PGS
File this flight plan on PilotEdge
Remarks: Outdated FMC Default XPlane
Altitude:
(Current/Filed)
20,000ft
Speed:
(Current/Filed)
450kts
Departed: 22-Jul-18 12:48 PM
Arrived: 22-Jul-18 02:27 PM
Distance/Time
Traveled:
281nm/1:38
Distance/Time
To Go:
Arrived

Flight Plot

Page will automatically refresh every two minutes.

Flight plan parsing failed; only flown route is shown


Map Options




Map Legend


Flown Route
Filed Route
Departure Airport
Arrival Airport
Navaid (VOR, NDB)
Fix

Horizontal Profiles

Position Reports

Time Latitude Longitude Heading Altitude Ground
Speed
22-Jul-18 12:27 33.871053 -117.247020 61 1543ft 0kts
22-Jul-18 12:28 33.871053 -117.247020 61 1543ft 0kts
22-Jul-18 12:29 33.871053 -117.247020 61 1543ft 0kts
22-Jul-18 12:30 33.871053 -117.247020 61 1543ft 0kts
22-Jul-18 12:31 33.871053 -117.247020 61 1543ft 0kts
22-Jul-18 12:32 33.871053 -117.247020 61 1543ft 0kts
22-Jul-18 12:33 33.871053 -117.247020 61 1543ft 0kts
22-Jul-18 12:34 33.871053 -117.247020 61 1543ft 0kts
22-Jul-18 12:35 33.870975 -117.247194 61 1543ft 2kts
22-Jul-18 12:36 33.870784 -117.247621 61 1543ft 2kts
22-Jul-18 12:37 33.870687 -117.247835 61 1543ft 0kts
22-Jul-18 12:38 33.870687 -117.247835 61 1543ft 0kts
22-Jul-18 12:39 33.870687 -117.247835 61 1543ft 0kts
22-Jul-18 12:40 33.870687 -117.247835 61 1543ft 0kts
22-Jul-18 12:41 33.870687 -117.247835 61 1543ft 0kts
22-Jul-18 12:42 33.870682 -117.247730 111 1543ft 3kts
22-Jul-18 12:43 33.868271 -117.246840 172 1543ft 7kts
22-Jul-18 12:44 33.867686 -117.246750 173 1543ft 7kts
22-Jul-18 12:45 33.865537 -117.247244 246 1543ft 0kts
22-Jul-18 12:46 33.865537 -117.247244 246 1543ft 0kts
22-Jul-18 12:47 33.865537 -117.247244 246 1543ft 0kts
22-Jul-18 12:48 33.866098 -117.248984 328 1543ft 19kts
22-Jul-18 12:49 33.889768 -117.266122 324 2546ft 165kts
22-Jul-18 12:50 33.929394 -117.297801 324 4801ft 192kts
22-Jul-18 12:51 33.935474 -117.346678 221 6124ft 196kts
22-Jul-18 12:52 33.881763 -117.344472 169 8749ft 216kts
22-Jul-18 12:53 33.820506 -117.329551 172 8915ft 239kts
22-Jul-18 12:54 33.762964 -117.317175 171 10814ft 231kts
22-Jul-18 12:55 33.701414 -117.304303 169 13579ft 238kts
22-Jul-18 12:56 33.637954 -117.290641 161 16138ft 242kts
22-Jul-18 12:57 33.584343 -117.250189 147 18377ft 247kts
22-Jul-18 12:58 33.530607 -117.206030 146 20478ft 251kts
22-Jul-18 12:59 33.475757 -117.160616 146 22417ft 255kts
22-Jul-18 13:00 33.419681 -117.114172 146 24320ft 260kts
22-Jul-18 13:01 33.379585 -117.041539 94 25757ft 311kts
22-Jul-18 13:02 33.402970 -116.951640 75 25925ft 382kts
22-Jul-18 13:03 33.438027 -116.831674 76 27841ft 398kts
22-Jul-18 13:04 33.480678 -116.682570 76 28854ft 421kts
22-Jul-18 13:05 33.517388 -116.553177 76 28927ft 447kts
22-Jul-18 13:06 33.556929 -116.413538 76 28915ft 453kts
22-Jul-18 13:07 33.587966 -116.303289 76 28921ft 469kts
22-Jul-18 13:08 33.634872 -116.168263 57 28904ft 464kts
22-Jul-18 13:09 33.737923 -116.072336 38 28921ft 482kts
22-Jul-18 13:10 33.846956 -115.984459 38 28921ft 481kts
22-Jul-18 13:11 33.954182 -115.897943 38 28924ft 483kts
22-Jul-18 13:12 34.061122 -115.811379 38 28922ft 497kts
22-Jul-18 13:13 34.161763 -115.714066 47 28913ft 473kts
22-Jul-18 13:14 34.258121 -115.605942 47 28913ft 490kts
22-Jul-18 13:15 34.362610 -115.515959 26 28916ft 487kts
22-Jul-18 13:16 34.489838 -115.458296 23 28915ft 491kts
22-Jul-18 13:17 34.617571 -115.402479 23 28916ft 491kts
22-Jul-18 13:18 34.741443 -115.348242 24 28918ft 491kts
22-Jul-18 13:19 34.869093 -115.292167 24 28922ft 491kts
22-Jul-18 13:20 34.997199 -115.235681 23 28935ft 505kts
22-Jul-18 13:21 35.114194 -115.162524 45 28920ft 474kts
22-Jul-18 13:22 35.175983 -115.031141 74 28915ft 454kts
22-Jul-18 13:23 35.217890 -114.896312 75 28917ft 421kts
22-Jul-18 13:24 35.256016 -114.772335 75 28530ft 389kts
22-Jul-18 13:25 35.293829 -114.648705 75 28107ft 393kts
22-Jul-18 13:26 35.331531 -114.525027 75 27723ft 390kts
22-Jul-18 13:27 35.368771 -114.402317 75 27392ft 389kts
22-Jul-18 13:28 35.404328 -114.284676 75 27132ft 387kts
22-Jul-18 13:29 35.439599 -114.167497 75 26922ft 386kts
22-Jul-18 13:30 35.474977 -114.049495 75 26715ft 385kts
22-Jul-18 13:31 35.510643 -113.930015 75 26298ft 383kts
22-Jul-18 13:32 35.545457 -113.812921 75 26178ft 383kts
22-Jul-18 13:33 35.580084 -113.695949 75 25537ft 380kts
22-Jul-18 13:34 35.613402 -113.582949 75 24395ft 375kts
22-Jul-18 13:35 35.644096 -113.465743 78 23919ft 369kts
22-Jul-18 13:36 35.672764 -113.349089 78 23990ft 371kts
22-Jul-18 13:37 35.699609 -113.239222 78 22458ft 360kts
22-Jul-18 13:38 35.727353 -113.125157 77 21514ft 358kts
22-Jul-18 13:39 35.753943 -113.015376 77 20582ft 354kts
22-Jul-18 13:40 35.767693 -112.907498 88 19114ft 346kts
22-Jul-18 13:41 35.774666 -112.800609 88 17287ft 339kts
22-Jul-18 13:42 35.781429 -112.693507 88 15436ft 333kts
22-Jul-18 13:43 35.787887 -112.590816 87 13619ft 329kts
22-Jul-18 13:44 35.796325 -112.487021 85 11726ft 313kts
22-Jul-18 13:45 35.803827 -112.394598 85 10204ft 257kts
22-Jul-18 13:46 35.809009 -112.317642 86 9170ft 218kts
22-Jul-18 13:47 35.837272 -112.265662 31 8613ft 185kts
22-Jul-18 13:48 35.873003 -112.230419 36 8414ft 167kts
22-Jul-18 13:49 35.906592 -112.195166 36 7583ft 166kts
22-Jul-18 13:50 35.938060 -112.160389 35 7443ft 163kts
22-Jul-18 13:51 35.970027 -112.131811 355 8403ft 158kts
22-Jul-18 13:52 36.000613 -112.158699 271 8672ft 200kts
22-Jul-18 13:53 35.963474 -112.205765 209 8614ft 209kts
22-Jul-18 13:54 35.910358 -112.238220 208 8622ft 235kts
22-Jul-18 13:55 35.852403 -112.273364 208 8615ft 231kts
22-Jul-18 13:56 35.797292 -112.310527 233 8627ft 227kts
22-Jul-18 13:57 35.806300 -112.375192 330 8632ft 225kts
22-Jul-18 13:58 35.861433 -112.353968 41 8620ft 240kts
22-Jul-18 13:59 35.908970 -112.298029 41 8619ft 253kts
22-Jul-18 14:00 35.932816 -112.223137 121 8631ft 269kts
22-Jul-18 14:01 35.872256 -112.215818 231 8645ft 250kts
22-Jul-18 14:02 35.827045 -112.276620 228 8598ft 221kts
22-Jul-18 14:03 35.793890 -112.335840 282 8615ft 221kts
22-Jul-18 14:04 35.840877 -112.351999 42 8620ft 238kts
22-Jul-18 14:05 35.885473 -112.298703 40 8614ft 238kts
22-Jul-18 14:06 35.923358 -112.237299 91 8623ft 245kts
22-Jul-18 14:07 35.876307 -112.204864 217 8621ft 229kts
22-Jul-18 14:08 35.847210 -112.264505 288 8607ft 194kts
22-Jul-18 14:09 35.879695 -112.264790 65 8174ft 172kts
22-Jul-18 14:10 35.888538 -112.206833 43 7934ft 178kts
22-Jul-18 14:11 35.923605 -112.177228 37 7147ft 166kts
22-Jul-18 14:12 35.954923 -112.143620 37 6799ft 177kts
22-Jul-18 14:13 35.996179 -112.128619 313 7745ft 183kts
22-Jul-18 14:14 35.976527 -112.180668 215 8779ft 234kts
22-Jul-18 14:15 35.920776 -112.216345 177 8661ft 237kts
22-Jul-18 14:16 35.856954 -112.200405 171 8876ft 235kts
22-Jul-18 14:17 35.793392 -112.202347 190 8784ft 234kts
22-Jul-18 14:18 35.733956 -112.223759 220 8773ft 227kts
22-Jul-18 14:19 35.690825 -112.269910 256 8652ft 198kts
22-Jul-18 14:20 35.709930 -112.326251 300 8612ft 175kts
22-Jul-18 14:21 35.746357 -112.348324 10 8646ft 182kts
22-Jul-18 14:22 35.787579 -112.320045 37 8636ft 180kts
22-Jul-18 14:23 35.824235 -112.281649 37 8633ft 180kts
22-Jul-18 14:24 35.860300 -112.243785 37 8631ft 178kts
22-Jul-18 14:25 35.894278 -112.208071 36 7881ft 169kts
22-Jul-18 14:26 35.924436 -112.176275 38 7125ft 167kts
22-Jul-18 14:27 35.952115 -112.147339 39 6612ft 114kts
22-Jul-18 14:28 35.961239 -112.137532 47 6612ft 17kts
22-Jul-18 14:29 35.960946 -112.136098 62 6612ft 0kts
22-Jul-18 14:30 35.960948 -112.135423 91 6612ft 0kts
22-Jul-18 14:31 35.961039 -112.135174 45 6612ft 0kts

Navigation Log

Ident Type
Flight plan parsing failed, navigation log unavailable